sensor_id;sensor_type;location;lat;lon;timestamp;pressure;altitude;pressure_sealevel;temperature;humidity
69784;BME280;57054;51.978;4.498;2023-10-31T00:01:03;99685.28;;;10.27;100.00
69784;BME280;57054;51.978;4.498;2023-10-31T00:03:29;99686.22;;;10.26;100.00
69784;BME280;57054;51.978;4.498;2023-10-31T00:05:54;99688.00;;;10.25;100.00
69784;BME280;57054;51.978;4.498;2023-10-31T00:08:19;99674.16;;;10.23;100.00
69784;BME280;57054;51.978;4.498;2023-10-31T00:10:45;99672.59;;;10.21;100.00
69784;BME280;57054;51.978;4.498;2023-10-31T00:13:11;99676.03;;;10.21;100.00
69784;BME280;57054;51.978;4.498;2023-10-31T00:15:37;99681.25;;;10.21;100.00
69784;BME280;57054;51.978;4.498;2023-10-31T00:18:02;99675.19;;;10.21;100.00
69784;BME280;57054;51.978;4.498;2023-10-31T00:20:27;99674.41;;;10.18;100.00
69784;BME280;57054;51.978;4.498;2023-10-31T00:22:53;99675.28;;;10.19;100.00
69784;BME280;57054;51.978;4.498;2023-10-31T00:25:18;99670.88;;;10.19;100.00
69784;BME280;57054;51.978;4.498;2023-10-31T00:27:44;99676.94;;;10.20;100.00
69784;BME280;57054;51.978;4.498;2023-10-31T00:30:10;99683.03;;;10.21;100.00
69784;BME280;57054;51.978;4.498;2023-10-31T00:32:35;99675.28;;;10.19;100.00
69784;BME280;57054;51.978;4.498;2023-10-31T00:35:01;99676.13;;;10.19;100.00
69784;BME280;57054;51.978;4.498;2023-10-31T00:37:26;99687.31;;;10.22;100.00
69784;BME280;57054;51.978;4.498;2023-10-31T00:39:52;99687.31;;;10.22;100.00
69784;BME280;57054;51.978;4.498;2023-10-31T00:42:17;99688.94;;;10.24;100.00
69784;BME280;57054;51.978;4.498;2023-10-31T00:44:43;99686.88;;;10.29;100.00
69784;BME280;57054;51.978;4.498;2023-10-31T00:47:08;99696.28;;;10.33;100.00
69784;BME280;57054;51.978;4.498;2023-10-31T00:49:33;99692.66;;;10.36;100.00
69784;BME280;57054;51.978;4.498;2023-10-31T00:51:59;99699.47;;;10.38;100.00
69784;BME280;57054;51.978;4.498;2023-10-31T00:54:24;99705.56;;;10.39;100.00
69784;BME280;57054;51.978;4.498;2023-10-31T00:56:49;99705.56;;;10.39;100.00
69784;BME280;57054;51.978;4.498;2023-10-31T00:59:15;99709.94;;;10.38;100.00
69784;BME280;57054;51.978;4.498;2023-10-31T01:01:40;99709.19;;;10.36;100.00
69784;BME280;57054;51.978;4.498;2023-10-31T01:04:06;99716.19;;;10.36;100.00
69784;BME280;57054;51.978;4.498;2023-10-31T01:06:31;99716.19;;;10.36;100.00
69784;BME280;57054;51.978;4.498;2023-10-31T01:08:56;99717.97;;;10.35;100.00
69784;BME280;57054;51.978;4.498;2023-10-31T01:11:21;99722.34;;;10.35;100.00
69784;BME280;57054;51.978;4.498;2023-10-31T01:13:47;99733.69;;;10.35;100.00
69784;BME280;57054;51.978;4.498;2023-10-31T01:16:12;99727.59;;;10.35;100.00
69784;BME280;57054;51.978;4.498;2023-10-31T01:18:38;99732.81;;;10.35;100.00
69784;BME280;57054;51.978;4.498;2023-10-31T01:21:03;99738.91;;;10.35;100.00
69784;BME280;57054;51.978;4.498;2023-10-31T01:23:28;99740.66;;;10.35;100.00
69784;BME280;57054;51.978;4.498;2023-10-31T01:25:54;99745.91;;;10.35;100.00
69784;BME280;57054;51.978;4.498;2023-10-31T01:28:19;99746.78;;;10.35;100.00
69784;BME280;57054;51.978;4.498;2023-10-31T01:30:44;99751.13;;;10.35;100.00
69784;BME280;57054;51.978;4.498;2023-10-31T01:33:10;99751.13;;;10.35;100.00
69784;BME280;57054;51.978;4.498;2023-10-31T01:35:35;99752.00;;;10.35;100.00
69784;BME280;57054;51.978;4.498;2023-10-31T01:38:01;99759.78;;;10.37;100.00
69784;BME280;57054;51.978;4.498;2023-10-31T01:40:26;99758.00;;;10.37;100.00
69784;BME280;57054;51.978;4.498;2023-10-31T01:42:51;99754.53;;;10.37;100.00
69784;BME280;57054;51.978;4.498;2023-10-31T01:45:17;99760.69;;;10.36;100.00
69784;BME280;57054;51.978;4.498;2023-10-31T01:47:44;99771.06;;;10.37;100.00
69784;BME280;57054;51.978;4.498;2023-10-31T01:50:11;99769.56;;;10.33;100.00
69784;BME280;57054;51.978;4.498;2023-10-31T01:52:37;99775.72;;;10.32;100.00
69784;BME280;57054;51.978;4.498;2023-10-31T01:55:04;99769.66;;;10.32;100.00
69784;BME280;57054;51.978;4.498;2023-10-31T01:57:30;99774.81;;;10.33;100.00
69784;BME280;57054;51.978;4.498;2023-10-31T01:59:55;99775.72;;;10.32;100.00
69784;BME280;57054;51.978;4.498;2023-10-31T02:02:57;99782.75;;;10.32;100.00
69784;BME280;57054;51.978;4.498;2023-10-31T02:05:23;99787.88;;;10.33;100.00
69784;BME280;57054;51.978;4.498;2023-10-31T02:07:49;99791.34;;;10.34;100.00
69784;BME280;57054;51.978;4.498;2023-10-31T02:10:14;99788.72;;;10.34;100.00
69784;BME280;57054;51.978;4.498;2023-10-31T02:12:40;99798.25;;;10.35;100.00
69784;BME280;57054;51.978;4.498;2023-10-31T02:15:06;99793.78;;;10.37;100.00
69784;BME280;57054;51.978;4.498;2023-10-31T02:17:31;99793.78;;;10.37;100.00
69784;BME280;57054;51.978;4.498;2023-10-31T02:19:56;99788.44;;;10.38;100.00
69784;BME280;57054;51.978;4.498;2023-10-31T02:22:23;99793.69;;;10.38;100.00
69784;BME280;57054;51.978;4.498;2023-10-31T02:24:48;99795.38;;;10.40;100.00
69784;BME280;57054;51.978;4.498;2023-10-31T02:27:13;99790.16;;;10.40;100.00
69784;BME280;57054;51.978;4.498;2023-10-31T02:29:39;99793.59;;;10.40;100.00
69784;BME280;57054;51.978;4.498;2023-10-31T02:32:05;99798.84;;;10.40;100.00
69784;BME280;57054;51.978;4.498;2023-10-31T02:34:30;99799.59;;;10.42;100.00
69784;BME280;57054;51.978;4.498;2023-10-31T02:36:56;99811.75;;;10.43;100.00
69784;BME280;57054;51.978;4.498;2023-10-31T02:39:21;99810.84;;;10.44;100.00
69784;BME280;57054;51.978;4.498;2023-10-31T02:41:46;99812.59;;;10.44;100.00
69784;BME280;57054;51.978;4.498;2023-10-31T02:44:14;99818.69;;;10.44;100.00
69784;BME280;57054;51.978;4.498;2023-10-31T02:46:40;99815.22;;;10.44;100.00
69784;BME280;57054;51.978;4.498;2023-10-31T02:49:06;99813.47;;;10.44;100.00
69784;BME280;57054;51.978;4.498;2023-10-31T02:51:31;99823.06;;;10.44;100.00
69784;BME280;57054;51.978;4.498;2023-10-31T02:53:56;99820.53;;;10.42;100.00
69784;BME280;57054;51.978;4.498;2023-10-31T02:56:22;99816.16;;;10.43;100.00
69784;BME280;57054;51.978;4.498;2023-10-31T02:58:48;99820.53;;;10.42;100.00
69784;BME280;57054;51.978;4.498;2023-10-31T03:01:13;99810.06;;;10.42;100.00
69784;BME280;57054;51.978;4.498;2023-10-31T03:03:39;99823.16;;;10.42;100.00
69784;BME280;57054;51.978;4.498;2023-10-31T03:06:05;99820.53;;;10.42;100.00
69784;BME280;57054;51.978;4.498;2023-10-31T03:08:30;99818.78;;;10.43;100.00
69784;BME280;57054;51.978;4.498;2023-10-31T03:10:56;99816.16;;;10.43;100.00
69784;BME280;57054;51.978;4.498;2023-10-31T03:13:21;99809.22;;;10.42;100.00
69784;BME280;57054;51.978;4.498;2023-10-31T03:15:47;99822.38;;;10.40;100.00
69784;BME280;57054;51.978;4.498;2023-10-31T03:18:12;99822.59;;;10.37;100.00
69784;BME280;57054;51.978;4.498;2023-10-31T03:20:39;99834.72;;;10.38;100.00
69784;BME280;57054;51.978;4.498;2023-10-31T03:23:05;99838.28;;;10.37;100.00
69784;BME280;57054;51.978;4.498;2023-10-31T03:25:30;99842.84;;;10.33;100.00
69784;BME280;57054;51.978;4.498;2023-10-31T03:27:56;99839.28;;;10.34;100.00
69784;BME280;57054;51.978;4.498;2023-10-31T03:30:21;99849.75;;;10.34;100.00
69784;BME280;57054;51.978;4.498;2023-10-31T03:32:46;99845.34;;;10.35;100.00
69784;BME280;57054;51.978;4.498;2023-10-31T03:35:12;99855.75;;;10.36;100.00
69784;BME280;57054;51.978;4.498;2023-10-31T03:37:37;99848.91;;;10.34;100.00
69784;BME280;57054;51.978;4.498;2023-10-31T03:40:09;99853.31;;;10.33;100.00
69784;BME280;57054;51.978;4.498;2023-10-31T03:42:35;99844.69;;;10.31;100.00
69784;BME280;57054;51.978;4.498;2023-10-31T03:45:00;99842.16;;;10.30;100.00
69784;BME280;57054;51.978;4.498;2023-10-31T03:47:26;99840.53;;;10.27;100.00
69784;BME280;57054;51.978;4.498;2023-10-31T03:49:51;99845.84;;;10.26;100.00
69784;BME280;57054;51.978;4.498;2023-10-31T03:52:17;99845.94;;;10.24;100.00
69784;BME280;57054;51.978;4.498;2023-10-31T03:54:42;99847.69;;;10.24;100.00
69784;BME280;57054;51.978;4.498;2023-10-31T03:57:08;99844.25;;;10.23;100.00
69784;BME280;57054;51.978;4.498;2023-10-31T03:59:33;99852.09;;;10.23;100.00
69784;BME280;57054;51.978;4.498;2023-10-31T04:01:58;99850.31;;;10.24;100.00
69784;BME280;57054;51.978;4.498;2023-10-31T04:04:24;99852.09;;;10.23;100.00
69784;BME280;57054;51.978;4.498;2023-10-31T04:06:49;99846.03;;;10.23;100.00
69784;BME280;57054;51.978;4.498;2023-10-31T04:09:14;99858.34;;;10.21;100.00
69784;BME280;57054;51.978;4.498;2023-10-31T04:11:40;99865.53;;;10.17;100.00
69784;BME280;57054;51.978;4.498;2023-10-31T04:14:06;99869.13;;;10.14;100.00
69784;BME280;57054;51.978;4.498;2023-10-31T04:16:32;99875.19;;;10.15;100.00
69784;BME280;57054;51.978;4.498;2023-10-31T04:18:57;99884.81;;;10.14;100.00
69784;BME280;57054;51.978;4.498;2023-10-31T04:21:22;99877.94;;;10.13;100.00
69784;BME280;57054;51.978;4.498;2023-10-31T04:23:48;99879.75;;;10.11;100.00
69784;BME280;57054;51.978;4.498;2023-10-31T04:26:13;99881.63;;;10.09;100.00
69784;BME280;57054;51.978;4.498;2023-10-31T04:28:39;99886.09;;;10.07;100.00
69784;BME280;57054;51.978;4.498;2023-10-31T04:31:04;99885.25;;;10.07;100.00
69784;BME280;57054;51.978;4.498;2023-10-31T04:33:29;99898.25;;;10.08;100.00
69784;BME280;57054;51.978;4.498;2023-10-31T04:35:55;99898.34;;;10.07;100.00
69784;BME280;57054;51.978;4.498;2023-10-31T04:38:20;99900.94;;;10.07;100.00
69784;BME280;57054;51.978;4.498;2023-10-31T04:40:45;99903.63;;;10.05;100.00
69784;BME280;57054;51.978;4.498;2023-10-31T04:43:11;99904.47;;;10.06;100.00
69784;BME280;57054;51.978;4.498;2023-10-31T04:45:37;99903.63;;;10.05;100.00
69784;BME280;57054;51.978;4.498;2023-10-31T04:48:02;99900.09;;;10.06;100.00
69784;BME280;57054;51.978;4.498;2023-10-31T04:50:28;99905.41;;;10.05;100.00
69784;BME280;57054;51.978;4.498;2023-10-31T04:52:53;99904.59;;;10.04;100.00
69784;BME280;57054;51.978;4.498;2023-10-31T04:55:18;99913.41;;;10.02;100.00
69784;BME280;57054;51.978;4.498;2023-10-31T04:57:44;99909.13;;;10.01;100.00
69784;BME280;57054;51.978;4.498;2023-10-31T05:00:10;99916.13;;;10.00;100.00
69784;BME280;57054;51.978;4.498;2023-10-31T05:02:35;99924.03;;;9.98;100.00
69784;BME280;57054;51.978;4.498;2023-10-31T05:05:01;99930.97;;;9.99;100.00
69784;BME280;57054;51.978;4.498;2023-10-31T05:07:26;99932.81;;;9.97;100.00
69784;BME280;57054;51.978;4.498;2023-10-31T05:09:51;99938.06;;;9.97;100.00
69784;BME280;57054;51.978;4.498;2023-10-31T05:12:16;99938.13;;;9.96;100.00
69784;BME280;57054;51.978;4.498;2023-10-31T05:14:42;99944.28;;;9.95;100.00
69784;BME280;57054;51.978;4.498;2023-10-31T05:17:07;99943.44;;;9.94;100.00
69784;BME280;57054;51.978;4.498;2023-10-31T05:19:33;99939.16;;;9.93;100.00
69784;BME280;57054;51.978;4.498;2023-10-31T05:21:58;99951.38;;;9.93;100.00
69784;BME280;57054;51.978;4.498;2023-10-31T05:24:23;99945.28;;;9.92;100.00
69784;BME280;57054;51.978;4.498;2023-10-31T05:26:48;99940.91;;;9.93;100.00
69784;BME280;57054;51.978;4.498;2023-10-31T05:29:14;99952.22;;;9.93;100.00
69784;BME280;57054;51.978;4.498;2023-10-31T05:31:39;99960.06;;;9.93;100.00
69784;BME280;57054;51.978;4.498;2023-10-31T05:34:06;99957.53;;;9.92;100.00
69784;BME280;57054;51.978;4.498;2023-10-31T05:36:32;99959.22;;;9.93;100.00
69784;BME280;57054;51.978;4.498;2023-10-31T05:38:57;99966.13;;;9.94;100.00
69784;BME280;57054;51.978;4.498;2023-10-31T05:41:22;99959.22;;;9.93;100.00
69784;BME280;57054;51.978;4.498;2023-10-31T05:43:48;99955.69;;;9.94;100.00
69784;BME280;57054;51.978;4.498;2023-10-31T05:46:13;99958.53;;;9.89;100.00
69784;BME280;57054;51.978;4.498;2023-10-31T05:48:41;99963.75;;;9.89;100.00
69784;BME280;57054;51.978;4.498;2023-10-31T05:51:16;99960.38;;;9.87;100.00
69784;BME280;57054;51.978;4.498;2023-10-31T05:53:43;99963.94;;;9.86;100.00
69784;BME280;57054;51.978;4.498;2023-10-31T05:56:09;99963.94;;;9.86;100.00
69784;BME280;57054;51.978;4.498;2023-10-31T05:58:37;99968.22;;;9.87;100.00
69784;BME280;57054;51.978;4.498;2023-10-31T06:01:02;99971.59;;;9.89;100.00
69784;BME280;57054;51.978;4.498;2023-10-31T06:03:28;99964.63;;;9.90;100.00
69784;BME280;57054;51.978;4.498;2023-10-31T06:05:53;99966.28;;;9.91;100.00
69784;BME280;57054;51.978;4.498;2023-10-31T06:08:19;99966.28;;;9.91;100.00
69784;BME280;57054;51.978;4.498;2023-10-31T06:10:44;99969.66;;;9.93;100.00
69784;BME280;57054;51.978;4.498;2023-10-31T06:13:09;99974.91;;;9.93;100.00
69784;BME280;57054;51.978;4.498;2023-10-31T06:15:35;99980.31;;;9.90;100.00
69784;BME280;57054;51.978;4.498;2023-10-31T06:18:00;99982.06;;;9.89;100.00
69784;BME280;57054;51.978;4.498;2023-10-31T06:20:26;99976.84;;;9.89;100.00
69784;BME280;57054;51.978;4.498;2023-10-31T06:22:51;99982.25;;;9.86;100.00
69784;BME280;57054;51.978;4.498;2023-10-31T06:25:16;99983.97;;;9.86;100.00
69784;BME280;57054;51.978;4.498;2023-10-31T06:27:42;99991.06;;;9.84;100.00
69784;BME280;57054;51.978;4.498;2023-10-31T06:30:08;99993.69;;;9.84;100.00
69784;BME280;57054;51.978;4.498;2023-10-31T06:32:33;99991.13;;;9.82;100.00
69784;BME280;57054;51.978;4.498;2023-10-31T06:34:58;99997.38;;;9.79;100.00
69784;BME280;57054;51.978;4.498;2023-10-31T06:37:24;99992.16;;;9.79;100.00
69784;BME280;57054;51.978;4.498;2023-10-31T06:39:49;99999.16;;;9.79;100.00
69784;BME280;57054;51.978;4.498;2023-10-31T06:42:14;99998.22;;;9.80;100.00
69784;BME280;57054;51.978;4.498;2023-10-31T06:44:40;100007.00;;;9.79;100.00
69784;BME280;57054;51.978;4.498;2023-10-31T06:47:05;100006.13;;;9.78;100.00
69784;BME280;57054;51.978;4.498;2023-10-31T06:49:30;100009.56;;;9.80;100.00
69784;BME280;57054;51.978;4.498;2023-10-31T06:51:56;100014.84;;;9.79;100.00
69784;BME280;57054;51.978;4.498;2023-10-31T06:54:21;100030.47;;;9.80;100.00
69784;BME280;57054;51.978;4.498;2023-10-31T06:56:47;100032.16;;;9.82;100.00
69784;BME280;57054;51.978;4.498;2023-10-31T06:59:12;100025.94;;;9.84;100.00
69784;BME280;57054;51.978;4.498;2023-10-31T07:01:37;100039.78;;;9.86;100.00
69784;BME280;57054;51.978;4.498;2023-10-31T07:04:03;100035.31;;;9.88;100.00
69784;BME280;57054;51.978;4.498;2023-10-31T07:06:29;100031.84;;;9.88;100.00
69784;BME280;57054;51.978;4.498;2023-10-31T07:08:54;100034.38;;;9.89;100.00
69784;BME280;57054;51.978;4.498;2023-10-31T07:11:19;100037.84;;;9.90;100.00
69784;BME280;57054;51.978;4.498;2023-10-31T07:13:45;100043.09;;;9.90;100.00
69784;BME280;57054;51.978;4.498;2023-10-31T07:16:10;100049.16;;;9.90;100.00
69784;BME280;57054;51.978;4.498;2023-10-31T07:18:36;100049.91;;;9.92;100.00
69784;BME280;57054;51.978;4.498;2023-10-31T07:21:01;100049.91;;;9.92;100.00
69784;BME280;57054;51.978;4.498;2023-10-31T07:23:26;100052.59;;;9.91;100.00
69784;BME280;57054;51.978;4.498;2023-10-31T07:25:52;100060.38;;;9.92;100.00
69784;BME280;57054;51.978;4.498;2023-10-31T07:28:17;100069.94;;;9.93;100.00
69784;BME280;57054;51.978;4.498;2023-10-31T07:30:43;100068.16;;;9.94;100.00
69784;BME280;57054;51.978;4.498;2023-10-31T07:33:09;100067.22;;;9.95;100.00
69784;BME280;57054;51.978;4.498;2023-10-31T07:35:34;100069.75;;;9.96;100.00
69784;BME280;57054;51.978;4.498;2023-10-31T07:37:59;100068.91;;;9.96;100.00
69784;BME280;57054;51.978;4.498;2023-10-31T07:40:25;100078.38;;;9.98;100.00
69784;BME280;57054;51.978;4.498;2023-10-31T07:42:51;100075.69;;;10.00;100.00
69784;BME280;57054;51.978;4.498;2023-10-31T07:45:16;100070.44;;;10.00;100.00
69784;BME280;57054;51.978;4.498;2023-10-31T07:47:41;100065.22;;;10.00;100.00
69784;BME280;57054;51.978;4.498;2023-10-31T07:50:07;100061.69;;;10.01;100.00
69784;BME280;57054;51.978;4.498;2023-10-31T07:52:33;100063.38;;;10.02;100.00
69784;BME280;57054;51.978;4.498;2023-10-31T07:54:58;100070.38;;;10.02;100.00
69784;BME280;57054;51.978;4.498;2023-10-31T07:57:23;100071.13;;;10.04;100.00
69784;BME280;57054;51.978;4.498;2023-10-31T07:59:49;100069.28;;;10.06;100.00
69784;BME280;57054;51.978;4.498;2023-10-31T08:02:14;100075.31;;;10.08;100.00
69784;BME280;57054;51.978;4.498;2023-10-31T08:04:39;100077.94;;;10.08;100.00
69784;BME280;57054;51.978;4.498;2023-10-31T08:07:05;100081.38;;;10.08;100.00
69784;BME280;57054;51.978;4.498;2023-10-31T08:09:30;100077.94;;;10.08;100.00
69784;BME280;57054;51.978;4.498;2023-10-31T08:11:55;100084.84;;;10.09;100.00
69784;BME280;57054;51.978;4.498;2023-10-31T08:14:21;100077.81;;;10.09;100.00
69784;BME280;57054;51.978;4.498;2023-10-31T08:16:47;100087.38;;;10.10;100.00
69784;BME280;57054;51.978;4.498;2023-10-31T08:19:13;100088.16;;;10.12;100.00
69784;BME280;57054;51.978;4.498;2023-10-31T08:21:39;100088.91;;;10.14;100.00
69784;BME280;57054;51.978;4.498;2023-10-31T08:24:05;100083.53;;;10.17;100.00
69784;BME280;57054;51.978;4.498;2023-10-31T08:26:33;100092.91;;;10.22;100.00
69784;BME280;57054;51.978;4.498;2023-10-31T08:28:59;100099.84;;;10.23;100.00
69784;BME280;57054;51.978;4.498;2023-10-31T08:31:24;100104.81;;;10.27;100.00
69784;BME280;57054;51.978;4.498;2023-10-31T08:33:50;100109.88;;;10.32;100.00
69784;BME280;57054;51.978;4.498;2023-10-31T08:36:15;100108.84;;;10.34;100.00
69784;BME280;57054;51.978;4.498;2023-10-31T08:38:40;100107.88;;;10.37;100.00
69784;BME280;57054;51.978;4.498;2023-10-31T08:41:06;100112.09;;;10.40;100.00
69784;BME280;57054;51.978;4.498;2023-10-31T08:43:31;100104.09;;;10.43;100.00
69784;BME280;57054;51.978;4.498;2023-10-31T08:45:57;100109.25;;;10.44;100.00
69784;BME280;57054;51.978;4.498;2023-10-31T08:48:22;100110.84;;;10.47;100.00
69784;BME280;57054;51.978;4.498;2023-10-31T08:50:48;100109.06;;;10.47;100.00
69784;BME280;57054;51.978;4.498;2023-10-31T08:53:14;100118.63;;;10.48;100.00
69784;BME280;57054;51.978;4.498;2023-10-31T08:55:39;100115.94;;;10.50;100.00
69784;BME280;57054;51.978;4.498;2023-10-31T08:58:09;100120.16;;;10.52;100.00
69784;BME280;57054;51.978;4.498;2023-10-31T09:00:34;100124.47;;;10.53;100.00
69784;BME280;57054;51.978;4.498;2023-10-31T09:02:59;100127.00;;;10.55;100.00
69784;BME280;57054;51.978;4.498;2023-10-31T09:05:25;100124.38;;;10.55;100.00
69784;BME280;57054;51.978;4.498;2023-10-31T09:07:51;100130.41;;;10.57;100.00
69784;BME280;57054;51.978;4.498;2023-10-31T09:10:16;100136.41;;;10.59;100.00
69784;BME280;57054;51.978;4.498;2023-10-31T09:12:41;100141.56;;;10.61;100.00
69784;BME280;57054;51.978;4.498;2023-10-31T09:15:07;100144.19;;;10.61;100.00
69784;BME280;57054;51.978;4.498;2023-10-31T09:17:32;100153.78;;;10.60;100.00
69784;BME280;57054;51.978;4.498;2023-10-31T09:19:58;100147.72;;;10.60;100.00
69784;BME280;57054;51.978;4.498;2023-10-31T09:22:24;100152.88;;;10.61;100.00
69784;BME280;57054;51.978;4.498;2023-10-31T09:24:49;100160.72;;;10.61;100.00
69784;BME280;57054;51.978;4.498;2023-10-31T09:27:15;100159.91;;;10.61;100.00
69784;BME280;57054;51.978;4.498;2023-10-31T09:29:40;100158.19;;;10.60;100.00
69784;BME280;57054;51.978;4.498;2023-10-31T09:32:06;100159.09;;;10.59;100.00
69784;BME280;57054;51.978;4.498;2023-10-31T09:34:31;100161.72;;;10.59;100.00
69784;BME280;57054;51.978;4.498;2023-10-31T09:36:58;100159.09;;;10.59;100.00
69784;BME280;57054;51.978;4.498;2023-10-31T09:39:23;100163.50;;;10.58;100.00
69784;BME280;57054;51.978;4.498;2023-10-31T09:41:48;100166.94;;;10.59;100.00
69784;BME280;57054;51.978;4.498;2023-10-31T09:44:14;100160.66;;;10.63;100.00
69784;BME280;57054;51.978;4.498;2023-10-31T09:46:40;100163.09;;;10.66;100.00
69784;BME280;57054;51.978;4.498;2023-10-31T09:49:06;100165.63;;;10.67;100.00
69784;BME280;57054;51.978;4.498;2023-10-31T09:51:33;100169.03;;;10.69;100.00
69784;BME280;57054;51.978;4.498;2023-10-31T09:53:59;100172.50;;;10.70;100.00
69784;BME280;57054;51.978;4.498;2023-10-31T09:56:27;100188.22;;;10.70;100.00
69784;BME280;57054;51.978;4.498;2023-10-31T09:59:03;100184.72;;;10.69;100.00
69784;BME280;57054;51.978;4.498;2023-10-31T10:01:29;100184.72;;;10.69;100.00
69784;BME280;57054;51.978;4.498;2023-10-31T10:03:54;100182.91;;;10.71;100.00
69784;BME280;57054;51.978;4.498;2023-10-31T10:06:21;100183.75;;;10.72;100.00
69784;BME280;57054;51.978;4.498;2023-10-31T10:08:48;100199.38;;;10.73;100.00
69784;BME280;57054;51.978;4.498;2023-10-31T10:11:14;100203.69;;;10.74;100.00
69784;BME280;57054;51.978;4.498;2023-10-31T10:13:39;100198.28;;;10.78;100.00
69784;BME280;57054;51.978;4.498;2023-10-31T10:16:05;100206.91;;;10.80;100.00
69784;BME280;57054;51.978;4.498;2023-10-31T10:18:32;100208.69;;;10.79;100.00
69784;BME280;57054;51.978;4.498;2023-10-31T10:20:59;100211.31;;;10.79;100.00
69784;BME280;57054;51.978;4.498;2023-10-31T10:23:26;100220.78;;;10.82;100.00
69784;BME280;57054;51.978;4.498;2023-10-31T10:25:52;100218.16;;;10.82;100.00
69784;BME280;57054;51.978;4.498;2023-10-31T10:28:18;100221.63;;;10.82;100.00
69784;BME280;57054;51.978;4.498;2023-10-31T10:30:47;100218.09;;;10.83;100.00
69784;BME280;57054;51.978;4.498;2023-10-31T10:33:14;100229.41;;;10.84;100.00
69784;BME280;57054;51.978;4.498;2023-10-31T10:35:40;100231.03;;;10.86;100.00
69784;BME280;57054;51.978;4.498;2023-10-31T10:38:19;100223.00;;;10.89;100.00
69784;BME280;57054;51.978;4.498;2023-10-31T10:40:47;100223.88;;;10.90;100.00
69784;BME280;57054;51.978;4.498;2023-10-31T10:43:25;100223.69;;;10.93;100.00
69784;BME280;57054;51.978;4.498;2023-10-31T10:45:56;100217.53;;;10.94;100.00
69784;BME280;57054;51.978;4.498;2023-10-31T10:48:23;100220.84;;;10.98;100.00
69784;BME280;57054;51.978;4.498;2023-10-31T10:53:41;100238.00;;;11.03;100.00
69784;BME280;57054;51.978;4.498;2023-10-31T10:56:16;100239.59;;;11.06;100.00
69784;BME280;57054;51.978;4.498;2023-10-31T11:01:09;100244.69;;;11.09;100.00
69784;BME280;57054;51.978;4.498;2023-10-31T11:03:35;100244.63;;;11.10;100.00
69784;BME280;57054;51.978;4.498;2023-10-31T11:06:02;100250.63;;;11.12;100.00
69784;BME280;57054;51.978;4.498;2023-10-31T11:08:28;100248.00;;;11.12;100.00
69784;BME280;57054;51.978;4.498;2023-10-31T11:10:55;100249.59;;;11.15;100.00
69784;BME280;57054;51.978;4.498;2023-10-31T11:13:22;100241.75;;;11.15;100.00
69784;BME280;57054;51.978;4.498;2023-10-31T11:15:51;100250.47;;;11.16;100.00
69784;BME280;57054;51.978;4.498;2023-10-31T11:18:17;100241.59;;;11.18;100.00
69784;BME280;57054;51.978;4.498;2023-10-31T11:20:43;100246.00;;;11.18;100.00
69784;BME280;57054;51.978;4.498;2023-10-31T11:23:09;100247.66;;;11.19;100.00
69784;BME280;57054;51.978;4.498;2023-10-31T11:25:42;100255.31;;;11.23;100.00
69784;BME280;57054;51.978;4.498;2023-10-31T11:28:15;100258.53;;;11.28;100.00
69784;BME280;57054;51.978;4.498;2023-10-31T11:30:41;100259.16;;;11.33;100.00
69784;BME280;57054;51.978;4.498;2023-10-31T11:33:15;100251.97;;;11.37;100.00
69784;BME280;57054;51.978;4.498;2023-10-31T11:35:41;100255.28;;;11.41;100.00
69784;BME280;57054;51.978;4.498;2023-10-31T11:38:09;100256.03;;;11.43;100.00
69784;BME280;57054;51.978;4.498;2023-10-31T11:43:08;100247.97;;;11.46;100.00
69784;BME280;57054;51.978;4.498;2023-10-31T11:48:00;100259.94;;;11.51;100.00
69784;BME280;57054;51.978;4.498;2023-10-31T11:50:25;100255.53;;;11.52;100.00
69784;BME280;57054;51.978;4.498;2023-10-31T11:53:10;100249.34;;;11.53;100.00
69784;BME280;57054;51.978;4.498;2023-10-31T11:55:45;100256.28;;;11.54;100.00
69784;BME280;57054;51.978;4.498;2023-10-31T11:58:22;100245.88;;;11.52;100.00
69784;BME280;57054;51.978;4.498;2023-10-31T12:00:50;100262.56;;;11.51;100.00
69784;BME280;57054;51.978;4.498;2023-10-31T12:03:20;100257.22;;;11.53;100.00
69784;BME280;57054;51.978;4.498;2023-10-31T12:05:53;100247.75;;;11.50;100.00
69784;BME280;57054;51.978;4.498;2023-10-31T12:08:26;100254.78;;;11.50;100.00
69784;BME280;57054;51.978;4.498;2023-10-31T12:10:52;100253.06;;;11.49;100.00
69784;BME280;57054;51.978;4.498;2023-10-31T12:13:17;100255.63;;;11.50;100.00
69784;BME280;57054;51.978;4.498;2023-10-31T12:15:52;100254.78;;;11.50;100.00
69784;BME280;57054;51.978;4.498;2023-10-31T12:18:18;100262.94;;;11.44;100.00
69784;BME280;57054;51.978;4.498;2023-10-31T12:20:50;100258.88;;;11.38;100.00
69784;BME280;57054;51.978;4.498;2023-10-31T12:23:17;100263.22;;;11.39;100.00
69784;BME280;57054;51.978;4.498;2023-10-31T12:25:50;100261.44;;;11.40;100.00
69784;BME280;57054;51.978;4.498;2023-10-31T12:28:20;100269.16;;;11.43;100.00
69784;BME280;57054;51.978;4.498;2023-10-31T12:30:51;100271.75;;;11.43;100.00
69784;BME280;57054;51.978;4.498;2023-10-31T12:33:17;100261.28;;;11.43;100.00
69784;BME280;57054;51.978;4.498;2023-10-31T12:35:43;100264.88;;;11.40;100.00
69784;BME280;57054;51.978;4.498;2023-10-31T12:38:13;100264.97;;;11.39;100.00
69784;BME280;57054;51.978;4.498;2023-10-31T12:40:43;100269.22;;;11.41;100.00
69784;BME280;57054;51.978;4.498;2023-10-31T12:43:09;100266.59;;;11.41;100.00
69784;BME280;57054;51.978;4.498;2023-10-31T12:45:35;100271.00;;;11.41;100.00
69784;BME280;57054;51.978;4.498;2023-10-31T12:48:08;100272.59;;;11.43;100.00
69784;BME280;57054;51.978;4.498;2023-10-31T12:50:34;100268.13;;;11.45;100.00
69784;BME280;57054;51.978;4.498;2023-10-31T12:53:02;100280.31;;;11.46;100.00